createdAt,value
2018-11-25T00:00:36.658Z,12.77
2018-11-25T00:03:04.450Z,11.00
2018-11-25T00:05:32.078Z,12.23
2018-11-25T00:07:59.457Z,12.63
2018-11-25T00:10:26.816Z,9.90
2018-11-25T00:12:54.194Z,10.43
2018-11-25T00:15:21.578Z,13.20
2018-11-25T00:17:48.960Z,12.23
2018-11-25T00:20:16.314Z,10.47
2018-11-25T00:22:43.811Z,10.07
2018-11-25T00:25:12.662Z,10.07
2018-11-25T00:27:40.070Z,9.73
2018-11-25T00:30:11.918Z,10.60
2018-11-25T00:32:39.468Z,9.10
2018-11-25T00:35:07.559Z,9.20
2018-11-25T00:37:35.222Z,8.70
2018-11-25T00:40:02.965Z,9.43
2018-11-25T00:42:30.352Z,9.30
2018-11-25T00:44:57.749Z,8.90
2018-11-25T00:47:25.105Z,7.50
2018-11-25T00:49:52.472Z,8.33
2018-11-25T00:52:19.821Z,8.90
2018-11-25T00:54:47.204Z,9.47
2018-11-25T00:57:14.571Z,8.53
2018-11-25T00:59:42.008Z,9.50
2018-11-25T01:02:09.523Z,8.90
2018-11-25T01:04:37.072Z,8.33
2018-11-25T01:07:04.802Z,8.00
2018-11-25T01:09:32.365Z,8.17
2018-11-25T01:11:59.756Z,8.60
2018-11-25T01:14:27.150Z,9.17
2018-11-25T01:16:54.688Z,8.17
2018-11-25T01:19:22.071Z,9.40
2018-11-25T01:21:49.429Z,6.97
2018-11-25T01:24:16.800Z,8.30
2018-11-25T01:26:44.228Z,6.90
2018-11-25T01:29:11.627Z,7.47
2018-11-25T01:31:39.106Z,7.17
2018-11-25T01:34:06.749Z,7.60
2018-11-25T01:36:34.484Z,8.37
2018-11-25T01:39:01.927Z,6.90
2018-11-25T01:41:29.264Z,6.87
2018-11-25T01:43:56.654Z,5.70
2018-11-25T01:46:24.008Z,8.20
2018-11-25T01:48:51.375Z,6.23
2018-11-25T01:51:18.731Z,7.40
2018-11-25T01:53:46.112Z,7.10
2018-11-25T01:56:13.618Z,6.80
2018-11-25T01:58:41.147Z,6.10
2018-11-25T02:01:08.689Z,5.87
2018-11-25T02:03:36.412Z,6.30
2018-11-25T02:06:04.091Z,7.37
2018-11-25T02:08:31.519Z,5.80
2018-11-25T02:10:58.859Z,7.13
2018-11-25T02:13:26.228Z,6.90
2018-11-25T02:15:53.584Z,7.17
2018-11-25T02:18:20.992Z,6.17
2018-11-25T02:20:48.365Z,6.07
2018-11-25T02:23:15.817Z,5.57
2018-11-25T02:25:43.231Z,6.20
2018-11-25T02:28:10.809Z,6.00
2018-11-25T02:30:38.293Z,5.50
2018-11-25T02:33:05.967Z,5.70
2018-11-25T02:35:33.379Z,5.37
2018-11-25T02:38:00.773Z,5.30
2018-11-25T02:40:28.162Z,5.20
2018-11-25T02:42:55.511Z,5.27
2018-11-25T02:45:22.890Z,4.83
2018-11-25T02:47:50.363Z,5.93
2018-11-25T02:50:22.211Z,5.73
2018-11-25T02:52:49.568Z,5.00
2018-11-25T02:55:19.029Z,4.80
2018-11-25T02:57:46.422Z,5.97
2018-11-25T03:00:13.853Z,5.10
2018-11-25T03:02:41.289Z,5.87
2018-11-25T03:05:08.827Z,4.73
2018-11-25T03:07:36.484Z,5.23
2018-11-25T03:10:04.333Z,5.77
2018-11-25T03:12:31.686Z,5.20
2018-11-25T03:14:59.068Z,5.43
2018-11-25T03:17:26.422Z,5.20
2018-11-25T03:19:53.808Z,5.27
2018-11-25T03:22:21.151Z,4.00
2018-11-25T03:24:48.529Z,4.77
2018-11-25T03:27:15.982Z,4.60
2018-11-25T03:29:43.358Z,5.97
2018-11-25T03:32:10.724Z,4.67
2018-11-25T03:34:38.425Z,4.30
2018-11-25T03:37:06.178Z,5.07
2018-11-25T03:39:33.567Z,4.50
2018-11-25T03:42:00.972Z,5.33
2018-11-25T03:44:28.336Z,4.83
2018-11-25T03:46:55.692Z,5.77
2018-11-25T03:49:23.069Z,4.40
2018-11-25T03:51:50.409Z,4.37
2018-11-25T03:54:17.787Z,4.87
2018-11-25T03:56:45.199Z,4.60
2018-11-25T03:59:12.760Z,4.10
2018-11-25T04:01:40.283Z,3.83
2018-11-25T04:04:08.029Z,3.83
2018-11-25T04:06:35.623Z,4.73
2018-11-25T04:09:03.826Z,4.30
2018-11-25T04:11:31.167Z,4.87
2018-11-25T04:13:58.567Z,4.50
2018-11-25T04:16:25.920Z,4.87
2018-11-25T04:18:53.475Z,4.57
2018-11-25T04:21:20.848Z,4.30
2018-11-25T04:23:48.187Z,4.90
2018-11-25T04:26:15.651Z,4.57
2018-11-25T04:28:43.080Z,4.93
2018-11-25T04:31:10.588Z,4.20
2018-11-25T04:33:38.322Z,4.67
2018-11-25T04:36:05.956Z,3.37
2018-11-25T04:38:33.323Z,3.93
2018-11-25T04:41:00.694Z,4.10
2018-11-25T04:43:28.035Z,3.23
2018-11-25T04:45:55.411Z,3.00
2018-11-25T04:48:22.766Z,4.87
2018-11-25T04:50:50.154Z,3.43
2018-11-25T04:53:17.705Z,4.43
2018-11-25T04:55:45.066Z,4.03
2018-11-25T04:58:12.505Z,4.47
2018-11-25T05:00:40.149Z,3.67
2018-11-25T05:03:07.683Z,3.93
2018-11-25T05:05:35.096Z,4.90
2018-11-25T05:10:36.597Z,3.50
2018-11-25T05:13:04.001Z,3.53
2018-11-25T05:15:31.376Z,4.23
2018-11-25T05:17:58.723Z,3.63
2018-11-25T05:20:26.094Z,3.70
2018-11-25T05:22:53.429Z,3.50
2018-11-25T05:25:20.887Z,3.23
2018-11-25T05:27:48.423Z,3.17
2018-11-25T05:30:17.282Z,3.97
2018-11-25T05:32:44.702Z,4.00
2018-11-25T05:35:15.444Z,4.20
2018-11-25T05:37:42.817Z,3.53
2018-11-25T05:40:10.904Z,3.20
2018-11-25T05:42:38.560Z,3.43
2018-11-25T05:45:07.869Z,4.47
2018-11-25T05:47:35.269Z,3.60
2018-11-25T05:50:02.640Z,3.77
2018-11-25T05:52:30.009Z,3.33
2018-11-25T05:54:57.377Z,3.17
2018-11-25T05:57:24.733Z,3.53
2018-11-25T05:59:52.112Z,4.10
2018-11-25T06:02:19.472Z,3.60
2018-11-25T06:04:46.891Z,3.27
2018-11-25T06:07:14.434Z,3.17
2018-11-25T06:09:41.991Z,3.40
2018-11-25T06:12:09.592Z,3.37
2018-11-25T06:14:37.080Z,3.53
2018-11-25T06:17:04.451Z,2.87
2018-11-25T06:19:31.804Z,3.47
2018-11-25T06:21:59.181Z,3.53
2018-11-25T06:24:26.533Z,3.50
2018-11-25T06:26:53.925Z,3.30
2018-11-25T06:29:21.255Z,3.83
2018-11-25T06:31:48.780Z,3.53
2018-11-25T06:34:16.181Z,2.67
2018-11-25T06:36:43.620Z,2.97
2018-11-25T06:39:11.175Z,3.47
2018-11-25T06:41:38.788Z,2.80
2018-11-25T06:44:06.283Z,2.93
2018-11-25T06:46:33.664Z,3.07
2018-11-25T06:49:01.006Z,3.40
2018-11-25T06:51:28.376Z,2.87
2018-11-25T06:53:55.715Z,3.07
2018-11-25T06:56:27.376Z,2.90
2018-11-25T06:58:50.478Z,3.30
2018-11-25T07:01:17.837Z,3.00
2018-11-25T07:03:45.347Z,3.03
2018-11-25T07:06:12.864Z,3.30
2018-11-25T07:08:40.609Z,4.00
2018-11-25T07:11:08.057Z,2.80
2018-11-25T07:13:35.454Z,3.23
2018-11-25T07:16:02.837Z,3.17
2018-11-25T07:18:30.180Z,3.20
2018-11-25T07:20:57.548Z,3.40
2018-11-25T07:23:24.897Z,3.23
2018-11-25T07:25:52.250Z,3.07
2018-11-25T07:28:19.704Z,3.13
2018-11-25T07:30:47.140Z,3.07
2018-11-25T07:33:14.535Z,2.60
2018-11-25T07:35:42.194Z,3.10
2018-11-25T07:38:09.730Z,3.20
2018-11-25T07:40:37.154Z,3.10
2018-11-25T07:43:04.615Z,3.40
2018-11-25T07:45:31.990Z,3.37
2018-11-25T07:47:59.346Z,3.37
2018-11-25T07:50:26.724Z,3.90
2018-11-25T07:52:54.065Z,3.60
2018-11-25T07:55:23.050Z,3.17
2018-11-25T07:57:51.186Z,3.33
2018-11-25T08:00:19.050Z,3.17
2018-11-25T08:02:46.628Z,3.50
2018-11-25T08:05:15.399Z,3.07
2018-11-25T08:07:42.947Z,3.50
2018-11-25T08:10:11.232Z,3.00
2018-11-25T08:12:38.597Z,2.87
2018-11-25T08:15:07.416Z,3.40
2018-11-25T08:17:34.793Z,2.70
2018-11-25T08:20:02.134Z,3.17
2018-11-25T08:22:29.571Z,3.00
2018-11-25T08:24:56.926Z,3.17
2018-11-25T08:27:24.299Z,3.20
2018-11-25T08:29:51.756Z,2.80
2018-11-25T08:32:19.134Z,3.57
2018-11-25T08:34:46.645Z,2.67
2018-11-25T08:37:14.371Z,3.10
2018-11-25T08:39:42.144Z,3.30
2018-11-25T08:42:09.527Z,4.07
2018-11-25T08:44:36.903Z,2.67
2018-11-25T08:47:04.322Z,3.23
2018-11-25T08:49:31.686Z,3.90
2018-11-25T08:51:59.069Z,2.97
2018-11-25T08:54:26.421Z,3.87
2018-11-25T08:56:53.787Z,3.63
2018-11-25T08:59:21.265Z,3.97
2018-11-25T09:01:48.798Z,3.73
2018-11-25T09:04:16.220Z,4.00
2018-11-25T09:06:43.897Z,4.03
2018-11-25T09:09:11.561Z,4.63
2018-11-25T09:11:38.993Z,4.07
2018-11-25T09:14:06.344Z,4.50
2018-11-25T09:16:33.893Z,5.77
2018-11-25T09:19:01.460Z,7.10
2018-11-25T09:21:28.835Z,5.53
2018-11-25T09:23:56.215Z,6.03
2018-11-25T09:26:23.677Z,5.00
2018-11-25T09:28:52.193Z,6.23
2018-11-25T09:31:18.659Z,5.00
2018-11-25T09:33:46.077Z,5.67
2018-11-25T09:36:13.801Z,8.43
2018-11-25T09:38:41.236Z,5.00
2018-11-25T09:41:08.626Z,5.00
2018-11-25T09:43:35.977Z,5.00
2018-11-25T09:46:03.358Z,4.70
2018-11-25T09:48:31.386Z,5.60
2018-11-25T09:50:58.745Z,5.10
2018-11-25T09:53:26.134Z,4.90
2018-11-25T09:55:54.212Z,4.70
2018-11-25T09:58:25.378Z,5.43
2018-11-25T10:00:49.264Z,6.10
2018-11-25T10:03:16.821Z,4.90
2018-11-25T10:05:44.438Z,5.87
2018-11-25T10:08:12.155Z,4.53
2018-11-25T10:10:39.533Z,5.47
2018-11-25T10:13:06.923Z,4.97
2018-11-25T10:15:34.271Z,5.13
2018-11-25T10:18:01.678Z,7.23
2018-11-25T10:20:29.686Z,4.40
2018-11-25T10:22:57.098Z,5.10
2018-11-25T10:25:24.469Z,5.40
2018-11-25T10:27:51.918Z,5.70
2018-11-25T10:30:21.654Z,5.23
2018-11-25T10:32:50.539Z,5.60
2018-11-25T10:35:17.978Z,4.60
2018-11-25T10:37:45.629Z,5.37
2018-11-25T10:40:13.920Z,5.43
2018-11-25T10:42:41.319Z,4.80
2018-11-25T10:45:11.176Z,4.90
2018-11-25T10:47:39.316Z,4.97
2018-11-25T10:50:07.910Z,4.23
2018-11-25T10:52:35.282Z,6.27
2018-11-25T10:55:02.633Z,6.77
2018-11-25T10:57:30.004Z,5.50
2018-11-25T10:59:57.664Z,4.70
2018-11-25T11:02:30.481Z,5.23
2018-11-25T11:05:03.221Z,5.20
2018-11-25T11:07:35.990Z,4.17
2018-11-25T11:10:04.024Z,5.90
2018-11-25T11:12:31.404Z,5.63
2018-11-25T11:14:58.744Z,5.13
2018-11-25T11:17:26.169Z,4.70
2018-11-25T11:19:53.706Z,4.60
2018-11-25T11:22:21.207Z,4.80
2018-11-25T11:24:48.642Z,4.33
2018-11-25T11:27:16.394Z,4.57
2018-11-25T11:29:44.683Z,4.60
2018-11-25T11:32:12.407Z,4.50
2018-11-25T11:34:40.123Z,4.43
2018-11-25T11:37:07.786Z,4.07
2018-11-25T11:39:35.174Z,4.57
2018-11-25T11:42:03.361Z,3.67
2018-11-25T11:44:30.705Z,4.13
2018-11-25T11:46:58.127Z,3.73
2018-11-25T11:49:25.479Z,4.57
2018-11-25T11:51:54.010Z,4.63
2018-11-25T11:54:21.659Z,3.97
2018-11-25T11:56:49.098Z,4.10
2018-11-25T11:59:16.662Z,4.60
2018-11-25T12:01:44.279Z,4.07
2018-11-25T12:04:11.660Z,3.10
2018-11-25T12:06:39.045Z,3.30
2018-11-25T12:09:08.329Z,4.23
2018-11-25T12:11:35.677Z,3.70
2018-11-25T12:14:03.069Z,4.10
2018-11-25T12:16:30.429Z,4.53
2018-11-25T12:18:58.128Z,5.40
2018-11-25T12:21:25.746Z,4.60
2018-11-25T12:23:53.359Z,4.10
2018-11-25T12:26:20.799Z,4.60
2018-11-25T12:28:48.504Z,3.37
2018-11-25T12:31:16.357Z,4.20
2018-11-25T12:33:43.887Z,3.73
2018-11-25T12:36:11.255Z,3.83
2018-11-25T12:38:38.727Z,4.10
2018-11-25T12:41:06.077Z,4.63
2018-11-25T12:43:33.452Z,3.70
2018-11-25T12:46:00.808Z,4.47
2018-11-25T12:48:28.185Z,3.40
2018-11-25T12:50:55.733Z,4.40
2018-11-25T12:53:23.161Z,3.70
2018-11-25T12:55:50.692Z,3.27
2018-11-25T12:58:18.477Z,3.93
2018-11-25T13:00:47.061Z,4.23
2018-11-25T13:03:14.898Z,4.40
2018-11-25T13:05:46.206Z,3.80
2018-11-25T13:08:11.909Z,4.73
2018-11-25T13:10:39.378Z,3.60
2018-11-25T13:13:07.664Z,3.80
2018-11-25T13:15:35.284Z,3.70
2018-11-25T13:18:02.684Z,3.70
2018-11-25T13:20:30.068Z,3.43
2018-11-25T13:22:58.830Z,5.47
2018-11-25T13:25:26.358Z,3.70
2018-11-25T13:27:53.748Z,4.30
2018-11-25T13:30:22.735Z,3.53
2018-11-25T13:32:50.701Z,3.20
2018-11-25T13:35:18.375Z,2.90
2018-11-25T13:37:46.610Z,4.13
2018-11-25T13:40:14.487Z,4.70
2018-11-25T13:42:41.865Z,3.80
2018-11-25T13:45:09.262Z,4.23
2018-11-25T13:47:36.653Z,4.53
2018-11-25T13:50:04.067Z,3.73
2018-11-25T13:52:32.278Z,3.83
2018-11-25T13:54:59.865Z,3.63
2018-11-25T13:57:28.472Z,3.90
2018-11-25T13:59:56.097Z,2.87
2018-11-25T14:02:23.725Z,2.97
2018-11-25T14:04:51.148Z,2.83
2018-11-25T14:07:18.723Z,2.63
2018-11-25T14:09:46.526Z,3.70
2018-11-25T14:12:13.884Z,2.83
2018-11-25T14:14:41.260Z,3.07
2018-11-25T14:17:08.595Z,2.53
2018-11-25T14:19:36.110Z,2.80
2018-11-25T14:22:03.485Z,3.00
2018-11-25T14:24:30.868Z,3.07
2018-11-25T14:26:58.988Z,2.70
2018-11-25T14:29:26.877Z,2.20
2018-11-25T14:31:54.393Z,3.20
2018-11-25T14:34:21.860Z,3.40
2018-11-25T14:36:49.424Z,2.27
2018-11-25T14:39:17.034Z,2.63
2018-11-25T14:41:44.423Z,2.90
2018-11-25T14:44:11.817Z,2.70
2018-11-25T14:46:39.172Z,2.80
2018-11-25T14:49:06.909Z,3.07
2018-11-25T14:51:34.257Z,2.77
2018-11-25T14:54:01.632Z,3.07
2018-11-25T14:56:28.985Z,3.37
2018-11-25T14:58:56.440Z,2.47
2018-11-25T15:01:23.912Z,2.60
2018-11-25T15:03:52.031Z,2.43
2018-11-25T15:06:19.718Z,2.00
2018-11-25T15:08:47.445Z,2.90
2018-11-25T15:11:14.863Z,3.03
2018-11-25T15:13:42.221Z,2.50
2018-11-25T15:16:11.211Z,2.03
2018-11-25T15:18:38.620Z,3.53
2018-11-25T15:21:06.764Z,2.87
2018-11-25T15:23:34.180Z,2.70
2018-11-25T15:26:01.597Z,3.13
2018-11-25T15:28:29.100Z,2.80
2018-11-25T15:30:56.491Z,3.47
2018-11-25T15:33:24.051Z,2.80
2018-11-25T15:35:51.576Z,3.47
2018-11-25T15:38:19.365Z,3.10
2018-11-25T15:40:46.837Z,3.23
2018-11-25T15:43:14.185Z,2.53
2018-11-25T15:45:41.611Z,2.63
2018-11-25T15:48:11.796Z,3.20
2018-11-25T15:50:39.167Z,2.70
2018-11-25T15:53:07.131Z,3.87
2018-11-25T15:55:34.537Z,2.70
2018-11-25T15:58:01.968Z,3.27
2018-11-25T16:00:29.524Z,2.13
2018-11-25T16:02:56.873Z,2.23
2018-11-25T16:05:25.875Z,2.67
2018-11-25T16:07:53.296Z,2.50
2018-11-25T16:10:20.925Z,2.45
2018-11-25T16:12:49.281Z,2.70
2018-11-25T16:15:18.524Z,2.75
2018-11-25T16:17:45.938Z,3.13
2018-11-25T16:20:14.027Z,3.00
2018-11-25T16:22:41.380Z,3.30
2018-11-25T16:25:10.619Z,2.37
2018-11-25T16:27:37.980Z,3.03
2018-11-25T16:30:05.979Z,2.70
2018-11-25T16:32:33.325Z,3.33
2018-11-25T16:35:00.731Z,2.40
2018-11-25T16:37:28.092Z,4.00
2018-11-25T16:39:55.616Z,3.37
2018-11-25T16:42:23.247Z,3.30
2018-11-25T16:44:50.913Z,3.00
2018-11-25T16:47:18.423Z,3.03
2018-11-25T16:49:45.857Z,3.37
2018-11-25T16:52:13.216Z,3.80
2018-11-25T16:54:41.001Z,2.97
2018-11-25T16:57:08.379Z,2.73
2018-11-25T16:59:35.795Z,3.13
2018-11-25T17:02:03.175Z,3.67
2018-11-25T17:04:30.696Z,3.20
2018-11-25T17:06:58.064Z,2.70
2018-11-25T17:09:25.672Z,3.13
2018-11-25T17:11:53.159Z,2.93
2018-11-25T17:14:20.840Z,3.43
2018-11-25T17:16:48.424Z,3.60
2018-11-25T17:19:15.832Z,3.40
2018-11-25T17:21:43.225Z,2.80
2018-11-25T17:24:10.608Z,4.70
2018-11-25T17:26:38.018Z,3.20
2018-11-25T17:29:05.380Z,3.37
2018-11-25T17:34:21.820Z,3.10
2018-11-25T17:36:49.390Z,2.93
2018-11-25T17:39:16.912Z,4.27
2018-11-25T17:41:44.312Z,3.47
2018-11-25T17:44:11.695Z,2.60
2018-11-25T17:46:39.075Z,3.53
2018-11-25T17:49:06.427Z,3.67
2018-11-25T17:51:34.727Z,2.77
2018-11-25T17:54:02.068Z,3.57
2018-11-25T17:56:29.502Z,3.53
2018-11-25T17:58:56.988Z,3.53
2018-11-25T18:01:24.491Z,4.23
2018-11-25T18:03:52.320Z,3.07
2018-11-25T18:06:19.928Z,2.87
2018-11-25T18:08:47.297Z,3.47
2018-11-25T18:11:14.697Z,3.53
2018-11-25T18:13:42.099Z,4.60
2018-11-25T18:16:10.088Z,4.53
2018-11-25T18:18:46.073Z,4.20
2018-11-25T18:21:15.522Z,3.57
2018-11-25T18:23:42.930Z,2.90
2018-11-25T18:26:10.311Z,3.50
2018-11-25T18:28:37.652Z,3.10
2018-11-25T18:31:06.219Z,3.77
2018-11-25T18:33:33.571Z,3.73
2018-11-25T18:36:01.257Z,2.80
2018-11-25T18:38:28.769Z,3.80
2018-11-25T18:40:56.144Z,3.50
2018-11-25T18:43:23.917Z,3.10
2018-11-25T18:45:54.457Z,3.50
2018-11-25T18:48:19.191Z,3.80
2018-11-25T18:50:46.541Z,3.80
2018-11-25T18:53:13.916Z,3.10
2018-11-25T18:55:40.703Z,3.27
2018-11-25T18:58:08.088Z,3.67
2018-11-25T19:00:40.136Z,2.83
2018-11-25T19:03:07.539Z,3.20
2018-11-25T19:05:34.917Z,3.00
2018-11-25T19:08:02.437Z,4.07
2018-11-25T19:10:29.842Z,3.40
2018-11-25T19:12:57.318Z,3.43
2018-11-25T19:15:24.843Z,3.17
2018-11-25T19:17:52.542Z,3.00
2018-11-25T19:20:21.316Z,2.97
2018-11-25T19:22:48.781Z,3.00
2018-11-25T19:25:16.557Z,2.53
2018-11-25T19:27:44.479Z,2.60
2018-11-25T19:30:12.578Z,2.87
2018-11-25T19:32:40.083Z,2.90
2018-11-25T19:35:08.446Z,3.03
2018-11-25T19:37:35.933Z,2.90
2018-11-25T19:40:03.899Z,3.23
2018-11-25T19:42:32.508Z,3.30
2018-11-25T19:44:59.126Z,2.57
2018-11-25T19:47:26.681Z,5.97
2018-11-25T19:49:54.887Z,4.40
2018-11-25T19:52:22.616Z,3.70
2018-11-25T19:54:49.981Z,2.60
2018-11-25T19:57:17.421Z,4.40
2018-11-25T19:59:44.799Z,2.87
2018-11-25T20:02:12.433Z,3.40
2018-11-25T20:04:39.814Z,3.00
2018-11-25T20:07:07.348Z,2.80
2018-11-25T20:09:34.735Z,3.10
2018-11-25T20:12:02.228Z,3.63
2018-11-25T20:14:29.752Z,3.17
2018-11-25T20:17:03.167Z,3.87
2018-11-25T20:19:30.625Z,3.17
2018-11-25T20:22:03.313Z,3.57
2018-11-25T20:24:30.852Z,4.67
2018-11-25T20:27:03.671Z,3.03
2018-11-25T20:29:31.058Z,4.20
2018-11-25T20:32:03.808Z,3.90
2018-11-25T20:34:31.193Z,3.40
2018-11-25T20:36:58.765Z,3.23
2018-11-25T20:39:30.491Z,4.50
2018-11-25T20:41:57.873Z,3.13
2018-11-25T20:44:25.628Z,3.90
2018-11-25T20:46:58.291Z,3.40
2018-11-25T20:49:25.929Z,2.77
2018-11-25T20:51:58.867Z,3.60
2018-11-25T20:54:27.075Z,2.87
2018-11-25T20:56:54.803Z,2.70
2018-11-25T20:59:25.402Z,2.80
2018-11-25T21:01:52.963Z,3.20
2018-11-25T21:04:20.388Z,2.80
2018-11-25T21:06:47.748Z,3.83
2018-11-25T21:09:15.229Z,4.07
2018-11-25T21:11:42.716Z,4.20
2018-11-25T21:14:10.146Z,3.63
2018-11-25T21:16:37.515Z,3.20
2018-11-25T21:19:05.407Z,2.93
2018-11-25T21:21:32.810Z,3.10
2018-11-25T21:24:00.366Z,3.73
2018-11-25T21:26:27.775Z,2.70
2018-11-25T21:28:55.412Z,2.93
2018-11-25T21:31:22.864Z,4.00
2018-11-25T21:33:50.250Z,3.10
2018-11-25T21:36:17.633Z,2.83
2018-11-25T21:38:45.020Z,4.33
2018-11-25T21:41:12.424Z,3.10
2018-11-25T21:43:39.807Z,3.60
2018-11-25T21:46:07.156Z,3.40
2018-11-25T21:48:34.592Z,3.20
2018-11-25T21:51:02.037Z,3.57
2018-11-25T21:53:29.505Z,3.60
2018-11-25T21:55:57.118Z,3.40
2018-11-25T21:58:28.622Z,3.37
2018-11-25T22:00:52.356Z,4.10
2018-11-25T22:03:19.712Z,4.40
2018-11-25T22:05:47.105Z,4.10
2018-11-25T22:08:14.459Z,5.07
2018-11-25T22:10:41.835Z,3.57
2018-11-25T22:13:09.179Z,3.80
2018-11-25T22:15:36.556Z,3.10
2018-11-25T22:18:03.964Z,3.80
2018-11-25T22:20:31.458Z,3.70
2018-11-25T22:22:58.911Z,3.77
2018-11-25T22:25:26.619Z,4.20
2018-11-25T22:27:54.012Z,3.30
2018-11-25T22:30:21.971Z,3.10
2018-11-25T22:32:49.331Z,4.17
2018-11-25T22:35:17.374Z,3.53
2018-11-25T22:37:44.739Z,3.50
2018-11-25T22:40:12.689Z,3.43
2018-11-25T22:42:40.448Z,3.17
2018-11-25T22:45:08.485Z,3.20
2018-11-25T22:47:36.492Z,2.63
2018-11-25T22:50:04.091Z,3.10
2018-11-25T22:52:31.955Z,2.83
2018-11-25T22:54:59.440Z,2.70
2018-11-25T22:57:27.257Z,2.90
2018-11-25T22:59:54.809Z,3.00
2018-11-25T23:02:22.148Z,2.60
2018-11-25T23:04:55.240Z,2.83
2018-11-25T23:07:22.608Z,2.30
2018-11-25T23:09:49.963Z,2.87
2018-11-25T23:12:17.307Z,2.73
2018-11-25T23:14:44.654Z,2.80
2018-11-25T23:17:12.046Z,2.43
2018-11-25T23:19:39.388Z,2.43
2018-11-25T23:22:06.879Z,2.77
2018-11-25T23:24:34.216Z,2.90
2018-11-25T23:27:01.737Z,2.47
2018-11-25T23:29:29.359Z,2.47
2018-11-25T23:31:57.312Z,2.20
2018-11-25T23:34:24.842Z,1.80
2018-11-25T23:36:52.268Z,2.07
2018-11-25T23:39:19.633Z,2.43
2018-11-25T23:41:47.026Z,2.33
2018-11-25T23:44:14.373Z,2.37
2018-11-25T23:46:41.754Z,2.30
2018-11-25T23:49:09.115Z,1.80
2018-11-25T23:51:36.732Z,1.80
2018-11-25T23:54:04.097Z,2.30
2018-11-25T23:56:31.591Z,2.60
2018-11-25T23:58:59.196Z,2.70
